Time;durP1;ratioP1;P1;durP2;ratioP2;P2;SDS_P1;SDS_P2;PMS_P1;PMS_P2;Temp;Humidity;BMP_temperature;BMP_pressure;BME280_temperature;BME280_humidity;BME280_pressure;Samples;Min_cycle;Max_cycle;Signal;HPM_P1;HPM_P2
2021/04/07 00:02:06;;;;;;;13.82;8.50;;;77.40;2227.20;;;;;;5000667;28;20137;-78
2021/04/07 00:04:33;;;;;;;19.98;12.38;;;77.60;2227.20;;;;;;5001543;28;20029;-77
2021/04/07 00:07:00;;;;;;;15.65;10.18;;;77.40;2227.20;;;;;;5002456;28;20034;-77
2021/04/07 00:09:26;;;;;;;20.33;13.65;;;77.70;2227.20;;;;;;5003302;28;20033;-77
2021/04/07 00:11:53;;;;;;;28.48;25.73;;;77.60;2227.20;;;;;;5001881;28;20030;-77
2021/04/07 00:14:20;;;;;;;34.70;31.27;;;77.60;2227.20;;;;;;5002143;28;20026;-77
2021/04/07 00:16:47;;;;;;;24.63;19.60;;;77.40;2227.20;;;;;;5001964;28;20034;-77
2021/04/07 00:19:13;;;;;;;22.92;14.75;;;77.40;2227.20;;;;;;5001338;28;20038;-76
2021/04/07 00:21:39;;;;;;;17.10;13.07;;;77.50;2227.20;;;;;;5001274;28;20033;-76
2021/04/07 00:24:05;;;;;;;20.17;17.92;;;77.60;2227.20;;;;;;5001105;28;20046;-76
2021/04/07 00:26:33;;;;;;;40.33;22.35;;;77.40;2227.20;;;;;;5002523;28;20026;-78
2021/04/07 00:28:59;;;;;;;31.70;17.88;;;77.50;2227.20;;;;;;5001751;28;20029;-78
2021/04/07 00:31:25;;;;;;;16.52;12.23;;;77.50;2227.20;;;;;;5003553;28;20057;-77
2021/04/07 00:33:51;;;;;;;15.38;11.40;;;77.40;2227.20;;;;;;5003386;28;20114;-77
2021/04/07 00:36:16;;;;;;;21.42;13.50;;;77.50;2227.20;;;;;;5002803;28;20034;-76
2021/04/07 00:38:42;;;;;;;14.48;9.60;;;77.50;2227.20;;;;;;5002070;28;20033;-77
2021/04/07 00:41:08;;;;;;;14.57;10.38;;;77.60;2227.20;;;;;;5004839;28;20033;-77
2021/04/07 00:43:34;;;;;;;14.77;9.57;;;77.50;2227.20;;;;;;5004776;28;20032;-76
2021/04/07 00:46:00;;;;;;;13.88;9.88;;;77.60;2227.20;;;;;;5001220;28;20076;-77
2021/04/07 00:48:27;;;;;;;13.95;12.15;;;77.50;2227.20;;;;;;5000421;28;20029;-76
2021/04/07 00:50:53;;;;;;;22.85;14.20;;;77.60;2227.20;;;;;;4999326;28;20030;-76
2021/04/07 00:53:19;;;;;;;17.83;12.05;;;77.70;2227.20;;;;;;4999694;28;20026;-77
2021/04/07 00:55:45;;;;;;;12.13;9.05;;;77.60;2227.20;;;;;;4999681;28;20037;-76
2021/04/07 00:58:15;;;;;;;11.10;8.32;;;77.70;2227.20;;;;;;4998886;28;20030;-76
2021/04/07 01:00:41;;;;;;;10.60;7.97;;;77.60;2227.20;;;;;;5000544;28;20458;-77
2021/04/07 01:03:11;;;;;;;10.70;6.97;;;77.60;2227.20;;;;;;5001755;28;20058;-76
2021/04/07 01:05:37;;;;;;;12.40;7.80;;;77.60;2227.20;;;;;;5003030;28;20108;-78
2021/04/07 01:08:03;;;;;;;9.18;6.80;;;77.50;2227.20;;;;;;5004002;28;20425;-77
2021/04/07 01:10:29;;;;;;;11.23;7.47;;;77.50;2227.20;;;;;;5003380;28;20032;-77
2021/04/07 01:12:55;;;;;;;10.25;6.63;;;77.50;2227.20;;;;;;5005668;28;20030;-77
2021/04/07 01:15:22;;;;;;;13.57;9.00;;;77.60;2227.20;;;;;;5006333;28;20461;-76
2021/04/07 01:17:48;;;;;;;11.98;6.45;;;77.50;2227.20;;;;;;5005823;28;20030;-76
2021/04/07 01:20:20;;;;;;;12.40;8.32;;;77.50;2227.20;;;;;;5003290;28;20026;-77
2021/04/07 01:22:57;;;;;;;15.27;9.73;;;77.50;2227.20;;;;;;5003261;28;20022;-76
2021/04/07 01:25:23;;;;;;;18.63;9.95;;;77.40;2227.20;;;;;;5005461;28;20026;-77
2021/04/07 01:27:49;;;;;;;10.38;7.35;;;77.30;2227.20;;;;;;5008581;28;20026;-77
2021/04/07 01:30:17;;;;;;;11.63;7.97;;;77.30;2227.20;;;;;;5006405;28;20061;-74
2021/04/07 01:32:43;;;;;;;15.27;9.52;;;77.20;2227.20;;;;;;5005489;28;20049;-76
2021/04/07 01:35:12;;;;;;;15.63;9.88;;;77.20;2227.20;;;;;;5005830;28;21885;-77
2021/04/07 01:37:39;;;;;;;13.63;8.32;;;77.20;2227.20;;;;;;5007009;28;20025;-76
2021/04/07 01:40:10;;;;;;;26.02;13.30;;;77.20;2227.20;;;;;;5005580;28;20022;-76
2021/04/07 01:42:37;;;;;;;26.25;14.25;;;77.20;2227.20;;;;;;5004379;28;20029;-75
2021/04/07 01:45:05;;;;;;;13.10;7.75;;;77.10;2227.20;;;;;;5006138;28;20038;-75
2021/04/07 01:47:33;;;;;;;14.88;7.88;;;77.20;2227.20;;;;;;5005388;28;20026;-75
2021/04/07 01:50:04;;;;;;;12.73;7.60;;;77.20;2227.20;;;;;;5005976;28;20037;-76
2021/04/07 01:52:30;;;;;;;20.35;10.88;;;77.20;2227.20;;;;;;5006185;28;20022;-78
2021/04/07 01:54:57;;;;;;;17.48;9.70;;;77.10;2227.20;;;;;;5005178;28;20022;-75
2021/04/07 01:57:23;;;;;;;11.80;8.18;;;77.20;2227.20;;;;;;5006761;28;20026;-74
2021/04/07 01:59:55;;;;;;;17.70;10.38;;;77.40;2227.20;;;;;;5006972;28;20026;-77
2021/04/07 02:02:27;;;;;;;19.50;11.23;;;77.40;2227.20;;;;;;5012387;28;20034;-77
2021/04/07 02:04:54;;;;;;;14.82;8.88;;;77.30;2227.20;;;;;;5014895;28;20150;-78
2021/04/07 02:07:26;;;;;;;14.82;9.10;;;77.30;2227.20;;;;;;5017973;28;20026;-77
2021/04/07 02:10:08;;;;;;;24.58;14.00;;;77.20;2227.20;;;;;;5024910;28;20052;-77
2021/04/07 02:12:36;;;;;;;13.95;8.52;;;77.20;2227.20;;;;;;4999862;28;20037;-77
2021/04/07 02:15:15;;;;;;;15.35;9.63;;;77.20;2227.20;;;;;;5001530;28;20033;-77
2021/04/07 02:17:42;;;;;;;14.70;9.82;;;77.30;2227.20;;;;;;5014158;28;20037;-77
2021/04/07 02:20:33;;;;;;;15.50;9.50;;;77.10;2227.20;;;;;;5032983;28;20018;-77
2021/04/07 02:23:23;;;;;;;13.05;9.02;;;77.20;2227.20;;;;;;5017152;28;20034;-79
2021/04/07 02:25:49;;;;;;;11.65;7.25;;;77.30;2227.20;;;;;;5013263;28;20030;-77
2021/04/07 02:28:24;;;;;;;14.23;7.80;;;77.40;2227.20;;;;;;5033647;28;20053;-77
2021/04/07 02:31:24;;;;;;;17.10;9.77;;;77.20;2227.20;;;;;;5034238;28;20025;-78
2021/04/07 02:34:22;;;;;;;20.55;10.20;;;77.00;2227.20;;;;;;5016895;28;20069;-77
2021/04/07 02:37:30;;;;;;;9.48;6.32;;;77.10;2227.20;;;;;;5007951;28;20045;-78
2021/04/07 02:40:11;;;;;;;10.20;6.82;;;77.10;2227.20;;;;;;5000398;28;20044;-78
2021/04/07 02:43:03;;;;;;;19.27;10.30;;;77.10;2227.20;;;;;;4993572;28;20050;-77
2021/04/07 02:46:10;;;;;;;9.10;5.80;;;77.20;2227.20;;;;;;4972944;28;20241;-78
2021/04/07 02:49:50;;;;;;;14.40;9.55;;;77.20;2227.20;;;;;;4961707;29;20023;-78
2021/04/07 02:52:47;;;;;;;14.30;9.32;;;77.20;2227.20;;;;;;4958849;29;20059;-78
2021/04/07 02:56:19;;;;;;;12.13;8.40;;;77.20;2227.20;;;;;;4954276;29;20036;-77
2021/04/07 02:59:33;;;;;;;12.45;8.38;;;77.20;2227.20;;;;;;4953892;29;20087;-76
2021/04/07 03:02:06;;;;;;;11.10;7.35;;;77.10;2227.20;;;;;;4933419;29;20062;-77
2021/04/07 03:04:54;;;;;;;10.52;7.55;;;77.10;2227.20;;;;;;4938389;29;20027;-77
2021/04/07 03:07:50;;;;;;;11.82;8.23;;;77.10;2227.20;;;;;;4925194;29;20043;-78
2021/04/07 03:10:31;;;;;;;12.27;7.28;;;77.10;2227.20;;;;;;4950167;29;20027;-78
2021/04/07 03:14:02;;;;;;;9.82;6.75;;;77.20;2227.20;;;;;;4911755;29;20106;-77
2021/04/07 03:17:19;;;;;;;14.43;8.52;;;77.20;2227.20;;;;;;4936178;29;20051;-78
2021/04/07 03:24:04;;;;;;;12.20;7.18;;;77.30;2227.20;;;;;;4935549;29;20535;-79
2021/04/07 03:26:51;;;;;;;16.35;9.52;;;77.20;2227.20;;;;;;4926927;29;20037;-78
2021/04/07 03:29:39;;;;;;;10.88;8.35;;;77.20;2227.20;;;;;;4946612;29;20036;-79
2021/04/07 03:32:11;;;;;;;33.13;22.40;;;77.20;2227.20;;;;;;4934658;29;20035;-78
2021/04/07 03:35:29;;;;;;;14.40;10.07;;;77.10;2227.20;;;;;;4935097;29;20444;-78
2021/04/07 03:38:17;;;;;;;17.95;14.50;;;77.00;2227.20;;;;;;4936383;29;20051;-77
2021/04/07 03:41:13;;;;;;;13.93;9.05;;;76.80;2227.20;;;;;;4967516;28;20041;-78
2021/04/07 03:44:27;;;;;;;7.22;4.85;;;76.90;2227.20;;;;;;4980628;28;20039;-77
2021/04/07 03:47:46;;;;;;;11.82;7.22;;;76.80;2227.20;;;;;;4985732;28;20035;-78
2021/04/07 03:50:39;;;;;;;15.65;7.78;;;76.80;2227.20;;;;;;4991923;28;20034;-79
2021/04/07 03:53:46;;;;;;;13.67;11.30;;;76.90;2227.20;;;;;;4984311;28;20041;-79
2021/04/07 03:56:34;;;;;;;13.18;8.40;;;76.90;2227.20;;;;;;5031089;28;20049;-77
2021/04/07 04:00:09;;;;;;;9.55;7.35;;;76.90;2227.20;;;;;;5032972;28;20037;-80
2021/04/07 04:03:18;;;;;;;8.43;6.25;;;77.00;2227.20;;;;;;5033100;28;20018;-78
2021/04/07 04:06:27;;;;;;;8.48;5.72;;;77.00;2227.20;;;;;;5010917;28;20026;-78
2021/04/07 04:08:54;;;;;;;8.27;6.07;;;76.90;2227.20;;;;;;5016938;28;20049;-78
2021/04/07 04:11:53;;;;;;;15.68;9.57;;;76.80;2227.20;;;;;;5018185;28;20049;-79
2021/04/07 04:14:23;;;;;;;14.45;7.85;;;76.80;2227.20;;;;;;5009302;28;20034;-78
2021/04/07 04:17:16;;;;;;;11.75;7.53;;;76.80;2227.20;;;;;;5014575;28;20074;-79
2021/04/07 04:20:33;;;;;;;12.43;8.10;;;76.90;2227.20;;;;;;5030760;28;20037;-79
2021/04/07 04:23:33;;;;;;;9.93;6.65;;;76.90;2227.20;;;;;;4999854;28;20061;-78
2021/04/07 04:26:26;;;;;;;10.30;6.47;;;76.90;2227.20;;;;;;4992578;28;20054;-78
2021/04/07 04:29:03;;;;;;;15.65;9.25;;;52.10;2227.20;;;;;;4993349;28;20033;-78
2021/04/07 04:31:55;;;;;;;16.83;11.30;;;52.10;2227.20;;;;;;4993344;28;20127;-78
2021/04/07 04:34:31;;;;;;;22.17;12.98;;;52.10;2227.20;;;;;;4992450;28;20047;-78
2021/04/07 04:37:13;;;;;;;30.25;15.25;;;52.10;2227.20;;;;;;4992329;28;20045;-79
2021/04/07 04:47:03;;;;;;;17.98;13.35;;;76.90;2227.20;;;;;;4993235;28;20041;-79
2021/04/07 04:50:06;;;;;;;29.90;19.95;;;76.80;2227.20;;;;;;4993560;28;20035;-79
2021/04/07 04:53:00;;;;;;;37.13;22.40;;;76.90;2227.20;;;;;;4985186;28;20046;-79
2021/04/07 04:56:04;;;;;;;20.95;15.02;;;77.00;2227.20;;;;;;4991708;28;20124;-79
2021/04/07 04:58:35;;;;;;;28.67;17.73;;;77.00;2227.20;;;;;;5032269;28;20034;-78
2021/04/07 05:01:25;;;;;;;39.15;24.00;;;76.90;2227.20;;;;;;5008411;28;20073;-79
2021/04/07 05:04:24;;;;;;;31.73;19.77;;;77.00;2227.20;;;;;;4992214;28;20014;-79
2021/04/07 05:11:18;;;;;;;33.70;21.65;;;76.80;2227.20;;;;;;4987318;28;20041;-79
2021/04/07 05:14:41;;;;;;;40.90;27.27;;;76.90;2227.20;;;;;;4969465;28;20031;-79
2021/04/07 05:22:01;;;;;;;48.83;29.55;;;77.00;2227.20;;;;;;4862449;29;20137;-78
2021/04/07 05:25:12;;;;;;;60.67;31.45;;;77.10;2227.20;;;;;;4846953;29;20026;-80
2021/04/07 05:32:05;;;;;;;61.22;43.45;;;77.00;2227.20;;;;;;4880866;29;20054;-80
2021/04/07 05:35:44;;;;;;;62.03;38.67;;;77.10;2227.20;;;;;;4792896;29;20058;-79
2021/04/07 05:42:27;;;;;;;38.28;19.30;;;77.20;2227.20;;;;;;4808886;29;20107;-79
2021/04/07 05:46:02;;;;;;;42.70;27.92;;;77.20;2227.20;;;;;;4787759;30;20032;-79
2021/04/07 05:49:27;;;;;;;25.02;18.77;;;77.20;2227.20;;;;;;4785764;30;20020;-79
2021/04/07 05:53:15;;;;;;;46.40;28.50;;;77.10;2227.20;;;;;;4755698;30;20031;-79
2021/04/07 05:56:51;;;;;;;39.65;27.67;;;77.30;2227.20;;;;;;4701173;30;20034;-79
2021/04/07 06:00:40;;;;;;;63.17;37.35;;;77.10;2227.20;;;;;;4756033;30;20034;-79
2021/04/07 06:04:25;;;;;;;67.80;44.60;;;77.30;2227.20;;;;;;4738703;30;20033;-79
2021/04/07 06:08:28;;;;;;;86.05;49.22;;;77.20;2227.20;;;;;;4756006;30;20032;-79
2021/04/07 06:12:09;;;;;;;68.38;43.30;;;77.40;2227.20;;;;;;4818031;29;20036;-79
2021/04/07 06:15:34;;;;;;;64.55;43.20;;;77.40;2227.20;;;;;;4775402;30;20032;-79
2021/04/07 06:28:49;;;;;;;63.92;39.08;;;77.50;2227.20;;;;;;4772657;30;20116;-78
2021/04/07 06:39:28;;;;;;;78.10;46.10;;;77.60;2227.20;;;;;;4750826;30;20099;-78
2021/04/07 06:43:09;;;;;;;45.88;31.00;;;77.60;2227.20;;;;;;4778251;30;20137;-79
2021/04/07 06:46:52;;;;;;;42.42;29.55;;;77.50;2227.20;;;;;;4772472;29;20051;-79
2021/04/07 06:50:29;;;;;;;37.10;26.00;;;77.50;2227.20;;;;;;4858303;29;20042;-78
2021/04/07 06:54:00;;;;;;;53.10;34.85;;;77.50;2227.20;;;;;;4848626;29;20044;-78
2021/04/07 06:57:30;;;;;;;42.35;30.33;;;77.60;2227.20;;;;;;4863475;29;20089;-79
2021/04/07 07:00:35;;;;;;;29.38;19.48;;;77.60;2227.20;;;;;;4835191;29;20092;-79
2021/04/07 07:03:45;;;;;;;33.20;22.35;;;77.50;2227.20;;;;;;4795817;29;20034;-78
2021/04/07 07:07:28;;;;;;;43.80;30.45;;;77.60;2227.20;;;;;;4806581;29;20031;-79
2021/04/07 07:14:05;;;;;;;53.88;33.47;;;102.50;2227.20;;;;;;4909754;29;20064;-78
2021/04/07 07:21:28;;;;;;;30.55;20.95;;;102.50;2227.20;;;;;;4873229;29;20036;-81
2021/04/07 07:25:07;;;;;;;40.90;23.58;;;102.50;2227.20;;;;;;4886969;29;20045;-78
2021/04/07 07:32:17;;;;;;;22.55;16.13;;;102.70;2227.20;;;;;;4864446;29;20038;-78
2021/04/07 07:35:30;;;;;;;28.02;18.83;;;102.70;2227.20;;;;;;4876178;29;20041;-78
2021/04/07 07:38:51;;;;;;;23.15;16.60;;;102.70;2227.20;;;;;;4840742;29;20038;-78
2021/04/07 07:41:45;;;;;;;29.58;17.25;;;102.80;2227.20;;;;;;4870189;29;20037;-78
2021/04/07 07:51:55;;;;;;;29.27;16.30;;;102.90;2227.20;;;;;;4806005;30;19948;-78
2021/04/07 07:55:14;;;;;;;37.38;20.85;;;102.90;2227.20;;;;;;4824171;29;20188;-78
2021/04/07 07:59:09;;;;;;;34.33;20.35;;;103.00;2227.20;;;;;;4846215;29;20094;-78
2021/04/07 08:02:02;;;;;;;43.80;24.63;;;103.00;2227.20;;;;;;4836372;29;20049;-79
2021/04/07 08:05:45;;;;;;;29.67;19.15;;;103.10;2227.20;;;;;;4876460;29;20028;-78
2021/04/07 08:12:28;;;;;;;28.58;19.27;;;103.10;2227.20;;;;;;4821279;29;20074;-80
2021/04/07 08:16:03;;;;;;;20.95;13.98;;;103.10;2227.20;;;;;;4808333;29;20043;-79
2021/04/07 08:19:34;;;;;;;61.60;42.33;;;103.10;2227.20;;;;;;4770043;30;20032;-79
2021/04/07 08:23:01;;;;;;;37.40;17.77;;;103.10;2227.20;;;;;;4751420;30;20040;-79
2021/04/07 08:26:29;;;;;;;29.13;20.77;;;103.10;2227.20;;;;;;4670752;30;20042;-79
2021/04/07 08:35:57;;;;;;;;;;;103.30;2227.20;;;;;;4714177;30;20065;-79
2021/04/07 08:46:31;;;;;;;36.55;21.65;;;103.00;2227.20;;;;;;4730874;30;20055;-78
2021/04/07 08:50:22;;;;;;;50.00;34.38;;;102.90;2227.20;;;;;;4749742;30;20161;-78
2021/04/07 08:54:07;;;;;;;75.95;42.13;;;102.80;2227.20;;;;;;4756027;30;20047;-79
2021/04/07 09:01:02;;;;;;;23.52;14.43;;;102.80;2227.20;;;;;;4761577;30;20414;-78
2021/04/07 09:04:37;;;;;;;42.70;27.50;;;102.80;2227.20;;;;;;4878385;29;20029;-81
2021/04/07 09:25:37;;;;;;;38.85;25.95;;;102.70;2227.20;;;;;;4913663;29;20085;-79
2021/04/07 09:32:44;;;;;;;37.25;25.58;;;102.80;2227.20;;;;;;4877865;29;20053;-78
2021/04/07 09:35:57;;;;;;;44.85;30.05;;;102.90;2227.20;;;;;;4832819;29;20069;-79
2021/04/07 09:42:33;;;;;;;35.17;24.33;;;103.00;2227.20;;;;;;4813897;29;20034;-78
2021/04/07 09:45:01;;;;;;;62.00;34.80;;;102.90;2227.20;;;;;;4796874;29;20047;-78
2021/04/07 09:47:30;;;;;;;35.53;20.50;;;102.90;2227.20;;;;;;4815446;29;20126;-76
2021/04/07 09:49:57;;;;;;;41.65;25.95;;;102.80;2227.20;;;;;;4902278;29;20033;-78
2021/04/07 09:52:23;;;;;;;36.28;24.45;;;102.80;2227.20;;;;;;4901814;29;20432;-77
2021/04/07 09:55:22;;;;;;;31.90;22.08;;;102.80;2227.20;;;;;;4889898;29;20088;-77
2021/04/07 09:58:04;;;;;;;58.92;32.47;;;102.80;2227.20;;;;;;4902363;29;20519;-78
2021/04/07 10:00:34;;;;;;;59.13;39.53;;;102.80;2227.20;;;;;;4890932;29;20141;-78
2021/04/07 10:03:14;;;;;;;74.15;49.95;;;102.80;2227.20;;;;;;4949439;29;20030;-78
2021/04/07 10:05:41;;;;;;;50.35;35.97;;;102.80;2227.20;;;;;;4948198;29;20414;-77
2021/04/07 10:08:23;;;;;;;35.92;27.15;;;102.90;2227.20;;;;;;4949249;29;20043;-79
2021/04/07 10:10:53;;;;;;;28.00;21.35;;;102.90;2227.20;;;;;;4965708;29;20067;-79
2021/04/07 10:13:20;;;;;;;47.92;30.55;;;103.00;2227.20;;;;;;4947115;29;20209;-78
2021/04/07 10:15:46;;;;;;;30.40;22.40;;;103.10;2227.20;;;;;;4962791;29;20104;-79
2021/04/07 10:18:12;;;;;;;21.10;17.13;;;103.10;2227.20;;;;;;4945281;29;20046;-76
2021/04/07 10:20:39;;;;;;;19.40;15.23;;;103.10;2227.20;;;;;;4939714;29;20031;-78
2021/04/07 10:23:10;;;;;;;21.70;17.10;;;103.10;2227.20;;;;;;4939153;29;20024;-77
2021/04/07 10:25:37;;;;;;;38.38;23.15;;;103.10;2227.20;;;;;;4939773;29;20039;-77
2021/04/07 10:28:04;;;;;;;49.63;42.70;;;103.30;2227.20;;;;;;4939924;29;20034;-76
2021/04/07 10:30:43;;;;;;;52.80;38.10;;;103.20;2227.20;;;;;;4940629;29;20046;-77
2021/04/07 10:33:09;;;;;;;48.60;36.28;;;128.00;2252.80;;;;;;4939833;29;20028;-78
2021/04/07 10:35:36;;;;;;;21.65;17.10;;;128.00;2252.80;;;;;;4921846;29;20457;-83
2021/04/07 10:38:10;;;;;;;24.20;17.70;;;103.30;2227.20;;;;;;4944935;29;20476;-74
2021/04/07 10:40:39;;;;;;;19.88;14.20;;;103.10;2227.20;;;;;;4961368;28;20034;-76
2021/04/07 10:43:11;;;;;;;20.83;15.68;;;103.00;2227.20;;;;;;5000761;28;20080;-76
2021/04/07 10:45:38;;;;;;;25.10;18.90;;;102.80;2227.20;;;;;;5000172;28;20076;-81
2021/04/07 10:48:06;;;;;;;33.97;22.73;;;103.10;2227.20;;;;;;4999326;28;20021;-80
2021/04/07 10:50:33;;;;;;;29.38;21.35;;;103.30;2227.20;;;;;;4997690;28;20122;-83
2021/04/07 10:52:59;;;;;;;24.73;17.67;;;128.10;2252.80;;;;;;5001763;28;20057;-75
2021/04/07 10:55:28;;;;;;;25.25;16.85;;;128.10;2252.80;;;;;;5000557;28;20030;-76
2021/04/07 10:57:56;;;;;;;36.95;22.90;;;128.30;2252.80;;;;;;5003907;28;20092;-77
2021/04/07 11:00:37;;;;;;;22.90;18.10;;;128.10;2252.80;;;;;;5002305;28;20029;-77
2021/04/07 11:03:05;;;;;;;26.38;19.20;;;128.00;2252.80;;;;;;5018775;28;20029;-78
2021/04/07 11:05:42;;;;;;;26.67;18.30;;;128.10;2252.80;;;;;;5004054;28;20030;-76
2021/04/07 11:08:11;;;;;;;25.55;18.50;;;128.20;2252.80;;;;;;5003587;28;20102;-78
2021/04/07 11:10:41;;;;;;;27.52;19.75;;;128.20;2252.80;;;;;;5005123;28;20033;-76
2021/04/07 11:13:09;;;;;;;26.30;19.20;;;128.10;2252.80;;;;;;4999553;28;20022;-77
2021/04/07 11:15:35;;;;;;;30.92;22.23;;;128.00;2252.80;;;;;;4998955;28;20474;-78
2021/04/07 11:18:01;;;;;;;25.67;18.88;;;128.00;2252.80;;;;;;4998246;28;20033;-77
2021/04/07 11:20:28;;;;;;;25.83;18.40;;;128.00;2252.80;;;;;;4998157;28;20100;-77
2021/04/07 11:22:55;;;;;;;30.23;20.02;;;128.10;2252.80;;;;;;5015746;28;20072;-77
2021/04/07 11:25:21;;;;;;;25.27;19.10;;;103.30;2227.20;;;;;;4998039;28;20022;-76
2021/04/07 11:27:50;;;;;;;25.05;18.73;;;103.30;2227.20;;;;;;4998162;28;20117;-77
2021/04/07 11:30:16;;;;;;;18.80;13.43;;;128.20;2252.80;;;;;;5016031;28;20026;-77
2021/04/07 11:32:50;;;;;;;20.63;15.68;;;128.10;2252.80;;;;;;4997585;28;20038;-77
2021/04/07 11:35:21;;;;;;;35.00;19.80;;;128.10;2252.80;;;;;;5015759;28;20084;-77
2021/04/07 11:37:56;;;;;;;25.15;17.35;;;128.30;2252.80;;;;;;4997777;28;20397;-77
2021/04/07 11:45:36;;;;;;;39.75;29.90;;;128.70;2252.80;;;;;;5015438;28;20484;-78
2021/04/07 11:48:03;;;;;;;31.40;20.02;;;128.60;2252.80;;;;;;4997826;28;20069;-77
2021/04/07 11:50:29;;;;;;;31.02;21.48;;;128.70;2252.80;;;;;;5015374;28;20024;-78
2021/04/07 11:52:55;;;;;;;19.27;14.27;;;128.70;2252.80;;;;;;4996663;28;20389;-77
2021/04/07 11:55:21;;;;;;;18.23;13.48;;;128.60;2252.80;;;;;;4997700;28;20030;-77
2021/04/07 11:57:47;;;;;;;13.70;10.07;;;128.60;2252.80;;;;;;5015217;28;20374;-77
2021/04/07 12:00:15;;;;;;;25.10;18.17;;;128.50;2252.80;;;;;;5014785;28;20417;-77
2021/04/07 12:02:46;;;;;;;17.08;13.23;;;128.60;2252.80;;;;;;4997523;28;20120;-77
2021/04/07 12:05:15;;;;;;;25.05;19.42;;;128.90;2252.80;;;;;;4997583;28;20026;-78
2021/04/07 12:07:42;;;;;;;46.22;34.63;;;153.60;2252.80;;;;;;4997102;28;20021;-77
2021/04/07 12:10:08;;;;;;;35.88;22.80;;;153.60;2252.80;;;;;;4997326;28;20121;-77
2021/04/07 12:12:34;;;;;;;39.90;26.70;;;153.60;2252.80;;;;;;5015068;28;20036;-77
2021/04/07 12:15:00;;;;;;;48.50;34.80;;;128.90;2252.80;;;;;;4997395;28;20030;-78
2021/04/07 12:17:27;;;;;;;56.78;38.35;;;128.80;2252.80;;;;;;4992565;28;20145;-77
2021/04/07 12:19:52;;;;;;;50.45;33.47;;;128.80;2252.80;;;;;;4977493;28;20027;-76
2021/04/07 12:22:18;;;;;;;58.33;39.72;;;128.70;2252.80;;;;;;4976495;28;20026;-78
2021/04/07 12:24:44;;;;;;;62.05;41.50;;;128.70;2252.80;;;;;;4995289;28;20025;-77
2021/04/07 12:27:10;;;;;;;52.72;36.67;;;128.60;2252.80;;;;;;4977087;28;20034;-76
2021/04/07 12:29:36;;;;;;;56.50;35.20;;;128.60;2252.80;;;;;;4993507;28;20108;-76
2021/04/07 12:32:02;;;;;;;36.42;24.25;;;128.50;2252.80;;;;;;4994788;28;20062;-76
2021/04/07 12:34:28;;;;;;;23.70;15.80;;;128.60;2252.80;;;;;;4977355;28;20452;-78
2021/04/07 12:36:57;;;;;;;39.88;26.15;;;128.50;2252.80;;;;;;4994470;28;20387;-76
2021/04/07 12:39:24;;;;;;;25.65;16.40;;;128.40;2252.80;;;;;;4995069;28;20470;-77
2021/04/07 12:41:56;;;;;;;22.08;15.52;;;128.40;2252.80;;;;;;4976996;28;20121;-77
2021/04/07 12:44:22;;;;;;;31.45;21.48;;;128.50;2252.80;;;;;;4995262;28;20066;-78
2021/04/07 12:46:48;;;;;;;26.77;17.08;;;128.60;2252.80;;;;;;4977286;28;20052;-77
2021/04/07 12:49:14;;;;;;;27.50;19.02;;;128.40;2252.80;;;;;;4976812;28;20463;-78
2021/04/07 12:51:40;;;;;;;21.92;15.73;;;128.30;2252.80;;;;;;4977163;28;20030;-77
2021/04/07 12:54:24;;;;;;;22.92;16.00;;;103.30;2227.20;;;;;;4977826;28;20088;-77
2021/04/07 12:57:09;;;;;;;20.67;14.98;;;128.10;2252.80;;;;;;4977617;28;20516;-77
2021/04/07 12:59:35;;;;;;;23.60;15.32;;;103.30;2227.20;;;;;;4977214;28;20029;-77
2021/04/07 13:02:01;;;;;;;20.17;14.27;;;128.00;2252.80;;;;;;4976727;28;20385;-76
2021/04/07 13:04:26;;;;;;;19.73;14.15;;;128.00;2252.80;;;;;;4976856;28;20033;-76
2021/04/07 13:06:52;;;;;;;23.02;16.70;;;128.10;2252.80;;;;;;4994510;28;20546;-76
2021/04/07 13:09:18;;;;;;;31.75;23.98;;;128.10;2252.80;;;;;;4976826;28;20026;-77
2021/04/07 13:11:44;;;;;;;16.40;12.52;;;128.20;2252.80;;;;;;4976999;28;20089;-76
2021/04/07 13:14:10;;;;;;;23.67;15.90;;;128.00;2252.80;;;;;;4977887;28;20030;-77
2021/04/07 13:16:35;;;;;;;27.35;17.73;;;128.00;2252.80;;;;;;4977017;28;20030;-77
2021/04/07 13:19:05;;;;;;;22.92;16.55;;;103.20;2227.20;;;;;;4978886;28;20034;-76
2021/04/07 13:21:33;;;;;;;21.02;13.98;;;103.10;2227.20;;;;;;4996426;28;20376;-78
2021/04/07 13:23:59;;;;;;;18.70;13.10;;;103.20;2227.20;;;;;;4995817;28;20219;-76
2021/04/07 13:26:25;;;;;;;26.65;16.50;;;128.00;2252.80;;;;;;4995712;28;20069;-76
2021/04/07 13:28:52;;;;;;;22.98;14.90;;;128.40;2252.80;;;;;;4996322;28;20487;-76
2021/04/07 13:31:18;;;;;;;19.27;13.48;;;128.60;2252.80;;;;;;4978604;28;20031;-76
2021/04/07 13:33:49;;;;;;;13.90;10.23;;;128.90;2252.80;;;;;;4995257;28;20108;-78
2021/04/07 13:36:19;;;;;;;18.33;13.75;;;153.60;2252.80;;;;;;4995528;28;20385;-77
2021/04/07 13:43:56;;;;;;;14.60;9.90;;;153.90;2252.80;;;;;;4995755;28;20406;-78
2021/04/07 13:46:21;;;;;;;18.33;12.52;;;153.70;2252.80;;;;;;4978819;28;20038;-78
2021/04/07 13:48:48;;;;;;;27.48;20.75;;;153.80;2252.80;;;;;;4981092;28;20081;-77
2021/04/07 13:51:16;;;;;;;27.17;16.35;;;153.80;2252.80;;;;;;4980258;28;20414;-76
2021/04/07 13:53:42;;;;;;;17.30;11.68;;;153.60;2252.80;;;;;;4996702;28;20026;-78
2021/04/07 13:56:13;;;;;;;15.98;12.70;;;128.80;2252.80;;;;;;4976506;28;20540;-77
2021/04/07 13:58:41;;;;;;;21.15;14.80;;;153.60;2252.80;;;;;;4976244;28;20026;-77
2021/04/07 14:01:07;;;;;;;45.75;24.40;;;153.70;2252.80;;;;;;4976481;28;20031;-78
2021/04/07 14:03:33;;;;;;;32.80;22.05;;;153.60;2252.80;;;;;;4992613;28;20030;-77
2021/04/07 14:05:58;;;;;;;47.20;28.48;;;128.80;2252.80;;;;;;4993862;28;20062;-77
2021/04/07 14:08:26;;;;;;;36.67;22.35;;;128.70;2252.80;;;;;;4993689;28;20030;-77
2021/04/07 14:10:52;;;;;;;50.05;32.20;;;128.60;2252.80;;;;;;4976732;28;20521;-77
2021/04/07 14:13:18;;;;;;;49.05;32.85;;;128.50;2252.80;;;;;;4976356;28;20027;-77
2021/04/07 14:15:44;;;;;;;40.83;29.73;;;128.60;2252.80;;;;;;4976840;28;20171;-77
2021/04/07 14:18:11;;;;;;;67.88;45.97;;;128.70;2252.80;;;;;;4980177;28;20086;-77
2021/04/07 14:20:38;;;;;;;120.55;79.13;;;128.80;2252.80;;;;;;4979632;28;20489;-77
2021/04/07 14:23:05;;;;;;;54.22;37.15;;;128.80;2252.80;;;;;;4997443;28;20451;-76
2021/04/07 14:25:33;;;;;;;24.80;18.70;;;128.90;2252.80;;;;;;4979401;28;20113;-77
2021/04/07 14:28:03;;;;;;;18.80;13.00;;;128.80;2252.80;;;;;;4995971;28;20389;-77
2021/04/07 14:30:45;;;;;;;23.55;19.80;;;128.50;2252.80;;;;;;4997263;28;20037;-77
2021/04/07 14:33:13;;;;;;;24.38;16.48;;;128.40;2252.80;;;;;;4997059;28;20030;-77
2021/04/07 14:35:39;;;;;;;27.92;17.88;;;128.40;2252.80;;;;;;4997821;28;20165;-76
2021/04/07 14:38:05;;;;;;;25.02;19.23;;;128.60;2252.80;;;;;;4979536;28;20529;-77
2021/04/07 14:40:32;;;;;;;29.58;21.48;;;128.70;2252.80;;;;;;4979942;28;20024;-78
2021/04/07 14:42:57;;;;;;;36.30;23.15;;;128.70;2252.80;;;;;;5004777;28;20022;-77
2021/04/07 14:45:24;;;;;;;29.20;19.13;;;128.90;2252.80;;;;;;5015516;28;20054;-78
2021/04/07 14:47:49;;;;;;;28.63;21.20;;;153.60;2252.80;;;;;;4997439;28;20040;-76
2021/04/07 14:50:29;;;;;;;36.25;24.27;;;128.80;2252.80;;;;;;4998122;28;20116;-78
2021/04/07 14:52:55;;;;;;;38.78;23.10;;;128.90;2252.80;;;;;;4998872;28;20467;-77
2021/04/07 14:55:21;;;;;;;25.40;19.40;;;128.90;2252.80;;;;;;4998430;28;20430;-77
2021/04/07 14:57:47;;;;;;;48.63;31.65;;;128.80;2252.80;;;;;;4999086;28;20382;-76
2021/04/07 15:00:15;;;;;;;39.13;28.48;;;128.90;2252.80;;;;;;4999129;28;20025;-76
2021/04/07 15:02:42;;;;;;;34.65;24.55;;;128.90;2252.80;;;;;;5016647;28;20026;-77
2021/04/07 15:05:08;;;;;;;48.97;32.90;;;128.80;2252.80;;;;;;5015628;28;20439;-76
2021/04/07 15:07:35;;;;;;;49.28;37.38;;;128.70;2252.80;;;;;;4998283;28;20453;-76
2021/04/07 15:10:01;;;;;;;46.85;32.25;;;128.70;2252.80;;;;;;4998637;28;20465;-76
2021/04/07 15:12:27;;;;;;;30.50;22.17;;;128.60;2252.80;;;;;;4999150;28;20026;-74
2021/04/07 15:14:53;;;;;;;32.45;23.00;;;128.70;2252.80;;;;;;4998053;28;20526;-73
2021/04/07 15:17:18;;;;;;;36.28;23.10;;;128.60;2252.80;;;;;;4997668;28;20390;-72
2021/04/07 15:19:44;;;;;;;42.88;27.02;;;128.60;2252.80;;;;;;5015962;28;20108;-71
2021/04/07 15:22:12;;;;;;;39.45;26.25;;;128.50;2252.80;;;;;;4995627;28;20029;-71
2021/04/07 15:24:38;;;;;;;100.88;47.90;;;128.50;2252.80;;;;;;4997980;28;20033;-73